createdAt,value
2022-12-18T00:00:31.538Z,-2.78
2022-12-18T00:03:29.007Z,-2.78
2022-12-18T00:06:05.394Z,-2.77
2022-12-18T00:08:41.706Z,-2.76
2022-12-18T00:11:22.498Z,-2.77
2022-12-18T00:14:01.710Z,-2.79
2022-12-18T00:16:38.328Z,-2.79
2022-12-18T00:19:16.480Z,-2.79
2022-12-18T00:21:52.544Z,-2.78
2022-12-18T00:24:28.790Z,-2.78
2022-12-18T00:27:04.965Z,-2.77
2022-12-18T00:29:42.438Z,-2.76
2022-12-18T00:32:18.724Z,-2.76
2022-12-18T00:34:54.680Z,-2.77
2022-12-18T00:37:30.658Z,-2.76
2022-12-18T00:40:08.547Z,-2.75
2022-12-18T00:43:00.023Z,-2.74
2022-12-18T00:45:37.170Z,-2.74
2022-12-18T00:48:13.288Z,-2.72
2022-12-18T00:50:51.095Z,-2.71
2022-12-18T00:53:27.161Z,-2.70
2022-12-18T00:56:03.008Z,-2.69
2022-12-18T00:58:39.059Z,-2.69
2022-12-18T01:01:15.667Z,-2.67
2022-12-18T01:03:51.933Z,-2.68
2022-12-18T01:06:29.793Z,-2.69
2022-12-18T01:09:06.160Z,-2.68
2022-12-18T01:11:45.149Z,-2.71
2022-12-18T01:14:21.237Z,-2.72
2022-12-18T01:16:57.115Z,-2.74
2022-12-18T01:19:33.159Z,-2.74
2022-12-18T01:22:09.218Z,-2.76
2022-12-18T01:24:45.074Z,-2.79
2022-12-18T01:27:21.049Z,-2.82
2022-12-18T01:29:57.788Z,-2.85
2022-12-18T01:32:36.254Z,-2.87
2022-12-18T01:35:13.945Z,-2.89
2022-12-18T01:37:50.008Z,-2.90
2022-12-18T01:40:26.275Z,-2.91
2022-12-18T01:43:02.298Z,-2.92
2022-12-18T01:45:38.280Z,-2.93
2022-12-18T01:48:14.554Z,-2.92
2022-12-18T01:50:51.374Z,-2.91
2022-12-18T01:53:28.880Z,-2.89
2022-12-18T01:56:05.568Z,-2.88
2022-12-18T01:58:52.570Z,-2.88
2022-12-18T02:01:31.394Z,-2.86
2022-12-18T02:04:29.243Z,-2.85
2022-12-18T02:07:19.235Z,-2.84
2022-12-18T02:10:01.254Z,-2.81
2022-12-18T02:12:50.581Z,-2.80
2022-12-18T02:15:38.509Z,-2.79
2022-12-18T02:18:21.427Z,-2.77
2022-12-18T02:21:14.898Z,-2.76
2022-12-18T02:24:05.983Z,-2.77
2022-12-18T02:26:50.744Z,-2.78
2022-12-18T02:29:31.888Z,-2.78
2022-12-18T02:32:15.938Z,-2.78
2022-12-18T02:34:55.325Z,-2.78
2022-12-18T02:37:35.045Z,-2.76
2022-12-18T02:40:16.290Z,-2.75
2022-12-18T02:42:52.274Z,-2.74
2022-12-18T02:45:28.254Z,-2.75
2022-12-18T02:48:04.882Z,-2.75
2022-12-18T02:50:53.280Z,-2.75
2022-12-18T02:53:40.257Z,-2.76
2022-12-18T02:56:23.647Z,-2.77
2022-12-18T02:59:08.536Z,-2.77
2022-12-18T03:02:01.275Z,-2.76
2022-12-18T03:04:49.919Z,-2.75
2022-12-18T03:07:40.193Z,-2.75
2022-12-18T03:10:26.571Z,-2.76
2022-12-18T03:13:08.030Z,-2.77
2022-12-18T03:15:50.243Z,-2.77
2022-12-18T03:18:32.583Z,-2.77
2022-12-18T03:21:12.777Z,-2.78
2022-12-18T03:23:53.799Z,-2.78
2022-12-18T03:26:31.804Z,-2.78
2022-12-18T03:29:16.153Z,-2.78
2022-12-18T03:31:58.810Z,-2.77
2022-12-18T03:34:40.595Z,-2.77
2022-12-18T03:37:17.431Z,-2.77
2022-12-18T03:39:53.970Z,-2.77
2022-12-18T03:42:41.330Z,-2.77
2022-12-18T03:45:29.511Z,-2.78
2022-12-18T03:48:16.835Z,-2.79
2022-12-18T03:51:01.791Z,-2.82
2022-12-18T03:53:52.120Z,-2.85
2022-12-18T03:56:34.068Z,-2.87
2022-12-18T03:59:12.439Z,-2.90
2022-12-18T04:01:54.743Z,-2.93
2022-12-18T04:04:34.856Z,-2.94
2022-12-18T04:07:14.887Z,-2.94
2022-12-18T04:09:56.130Z,-2.94
2022-12-18T04:12:34.257Z,-2.92
2022-12-18T04:15:13.721Z,-2.91
2022-12-18T04:17:53.104Z,-2.91
2022-12-18T04:20:31.645Z,-2.91
2022-12-18T04:23:08.266Z,-2.92
2022-12-18T04:25:44.332Z,-2.92
2022-12-18T04:28:24.477Z,-2.91
2022-12-18T04:31:00.312Z,-2.90
2022-12-18T04:33:37.231Z,-2.88
2022-12-18T04:36:14.449Z,-2.86
2022-12-18T04:38:51.003Z,-2.87
2022-12-18T04:41:26.923Z,-2.88
2022-12-18T04:44:02.871Z,-2.89
2022-12-18T04:46:38.857Z,-2.91
2022-12-18T04:49:15.647Z,-2.91
2022-12-18T04:51:51.962Z,-2.94
2022-12-18T04:54:27.888Z,-2.97
2022-12-18T04:57:04.021Z,-2.99
2022-12-18T04:59:40.051Z,-3.00
2022-12-18T05:02:16.054Z,-3.03
2022-12-18T05:04:52.462Z,-3.04
2022-12-18T05:07:28.537Z,-3.03
2022-12-18T05:10:04.800Z,-3.03
2022-12-18T05:12:56.108Z,-3.04
2022-12-18T05:15:35.054Z,-3.05
2022-12-18T05:18:11.287Z,-3.07
2022-12-18T05:20:47.252Z,-3.09
2022-12-18T05:23:25.024Z,-3.11
2022-12-18T05:26:04.348Z,-3.13
2022-12-18T05:28:41.252Z,-3.15
2022-12-18T05:31:17.605Z,-3.16
2022-12-18T05:33:56.246Z,-3.17
2022-12-18T05:36:32.182Z,-3.17
2022-12-18T05:39:08.906Z,-3.13
2022-12-18T05:41:44.786Z,-3.08
2022-12-18T05:44:20.797Z,-3.06
2022-12-18T05:46:57.073Z,-3.09
2022-12-18T05:49:33.116Z,-3.06
2022-12-18T05:52:10.043Z,-2.85
2022-12-18T05:54:46.046Z,-2.58
2022-12-18T05:57:22.013Z,-2.46
2022-12-18T05:59:57.861Z,-2.36
2022-12-18T06:02:33.818Z,-2.22
2022-12-18T06:05:12.160Z,-2.16
2022-12-18T06:07:48.087Z,-2.12
2022-12-18T06:10:24.209Z,-2.12
2022-12-18T06:13:00.003Z,-2.20
2022-12-18T06:15:38.275Z,-2.40
2022-12-18T06:18:14.119Z,-2.60
2022-12-18T06:20:58.379Z,-2.74
2022-12-18T06:23:34.253Z,-2.86
2022-12-18T06:26:14.708Z,-2.92
2022-12-18T06:28:50.887Z,-2.95
2022-12-18T06:31:27.409Z,-2.97
2022-12-18T06:34:05.932Z,-2.98
2022-12-18T06:36:41.825Z,-3.02
2022-12-18T06:39:17.883Z,-3.06
2022-12-18T06:41:53.831Z,-3.08
2022-12-18T06:44:29.896Z,-3.08
2022-12-18T06:47:05.834Z,-3.10
2022-12-18T06:49:41.808Z,-3.12
2022-12-18T06:52:17.785Z,-3.13
2022-12-18T06:54:53.725Z,-3.12
2022-12-18T06:57:30.174Z,-3.11
2022-12-18T07:00:08.814Z,-3.10
2022-12-18T07:02:44.948Z,-3.09
2022-12-18T07:05:21.367Z,-3.09
2022-12-18T07:07:57.222Z,-3.07
2022-12-18T07:10:33.150Z,-2.88
2022-12-18T07:13:08.958Z,-2.60
2022-12-18T07:15:44.888Z,-2.59
2022-12-18T07:18:21.340Z,-2.65
2022-12-18T07:20:57.256Z,-2.69
2022-12-18T07:23:33.884Z,-2.71
2022-12-18T07:26:13.326Z,-2.71
2022-12-18T07:28:49.654Z,-2.68
2022-12-18T07:31:28.164Z,-2.64
2022-12-18T07:34:04.234Z,-2.61
2022-12-18T07:36:40.229Z,-2.56
2022-12-18T07:39:17.677Z,-2.52
2022-12-18T07:42:07.405Z,-2.44
2022-12-18T07:44:43.535Z,-2.36
2022-12-18T07:47:19.517Z,-2.32
2022-12-18T07:49:55.573Z,-2.27
2022-12-18T07:52:31.628Z,-2.18
2022-12-18T07:55:09.449Z,-2.07
2022-12-18T07:57:55.426Z,-1.97
2022-12-18T08:00:33.002Z,-1.90
2022-12-18T08:03:08.867Z,-1.85
2022-12-18T08:05:44.752Z,-1.79
2022-12-18T08:08:20.713Z,-1.72
2022-12-18T08:10:56.768Z,-1.65
2022-12-18T08:13:33.360Z,-1.57
2022-12-18T08:16:11.938Z,-1.50
2022-12-18T08:18:47.868Z,-1.44
2022-12-18T08:21:27.613Z,-1.38
2022-12-18T08:24:05.268Z,-1.31
2022-12-18T08:26:41.228Z,-1.24
2022-12-18T08:29:21.478Z,-1.16
2022-12-18T08:31:57.641Z,-1.07
2022-12-18T08:34:33.701Z,-0.97
2022-12-18T08:37:09.657Z,-0.88
2022-12-18T08:39:45.814Z,-0.82
2022-12-18T08:42:39.443Z,-0.77
2022-12-18T08:45:16.177Z,-0.72
2022-12-18T08:47:52.513Z,-0.67
2022-12-18T08:50:28.396Z,-0.58
2022-12-18T08:53:04.646Z,-0.46
2022-12-18T08:55:41.448Z,-0.32
2022-12-18T08:58:19.012Z,-0.37
2022-12-18T09:00:55.323Z,-0.36
2022-12-18T09:03:31.792Z,-0.34
2022-12-18T09:06:09.110Z,-0.36
2022-12-18T09:08:45.193Z,-0.33
2022-12-18T09:11:29.922Z,-0.27
2022-12-18T09:14:06.557Z,-0.20
2022-12-18T09:16:42.962Z,-0.11
2022-12-18T09:19:20.375Z,-0.03
2022-12-18T09:21:56.326Z,0.01
2022-12-18T09:24:32.291Z,0.03
2022-12-18T09:27:08.345Z,0.01
2022-12-18T09:29:44.714Z,0.00
2022-12-18T09:32:22.578Z,0.01
2022-12-18T09:34:58.799Z,0.04
2022-12-18T09:37:34.737Z,0.09
2022-12-18T09:40:20.252Z,0.16
2022-12-18T09:43:02.832Z,0.26
2022-12-18T09:45:47.077Z,0.38
2022-12-18T09:48:32.554Z,0.35
2022-12-18T09:51:17.906Z,0.24
2022-12-18T09:54:03.887Z,0.16
2022-12-18T09:56:46.552Z,0.09
2022-12-18T09:59:34.551Z,-0.00
2022-12-18T10:02:26.310Z,-0.12
2022-12-18T10:05:13.963Z,-0.25
2022-12-18T10:08:05.984Z,-0.39
2022-12-18T10:10:49.417Z,-0.50
2022-12-18T10:13:41.418Z,-0.61
2022-12-18T10:16:21.741Z,-0.74
2022-12-18T10:19:39.102Z,-0.85
2022-12-18T10:22:37.677Z,-0.91
2022-12-18T10:25:27.741Z,-0.92
2022-12-18T10:28:16.049Z,-0.95
2022-12-18T10:30:52.216Z,-0.90
2022-12-18T10:33:33.512Z,-0.74
2022-12-18T10:36:11.392Z,-0.45
2022-12-18T10:38:48.743Z,-0.12
2022-12-18T10:41:33.866Z,0.23
2022-12-18T10:44:26.870Z,0.48
2022-12-18T10:47:16.461Z,0.70
2022-12-18T10:49:58.409Z,0.92
2022-12-18T10:52:35.029Z,1.07
2022-12-18T10:55:21.895Z,1.19
2022-12-18T10:58:22.162Z,1.18
2022-12-18T11:01:17.917Z,1.07
2022-12-18T11:04:18.500Z,0.99
2022-12-18T11:07:04.564Z,0.95
2022-12-18T11:09:43.740Z,0.88
2022-12-18T11:12:26.440Z,0.86
2022-12-18T11:15:01.997Z,0.92
2022-12-18T11:17:40.399Z,0.90
2022-12-18T11:20:36.243Z,0.82
2022-12-18T11:23:19.221Z,0.81
2022-12-18T11:26:04.388Z,0.77
2022-12-18T11:28:48.605Z,0.60
2022-12-18T11:31:32.442Z,0.40
2022-12-18T11:34:34.274Z,0.27
2022-12-18T11:37:13.712Z,0.11
2022-12-18T11:39:55.265Z,-0.10
2022-12-18T11:42:41.597Z,-0.35
2022-12-18T11:45:37.488Z,-0.57
2022-12-18T11:48:23.687Z,-0.74
2022-12-18T11:51:01.949Z,-0.87
2022-12-18T11:53:39.272Z,-0.98
2022-12-18T11:56:34.795Z,-1.07
2022-12-18T11:59:32.608Z,-1.18
2022-12-18T12:02:39.471Z,-1.28
2022-12-18T12:05:48.791Z,-1.35
2022-12-18T12:08:40.094Z,-1.40
2022-12-18T12:11:29.600Z,-1.45
2022-12-18T12:14:33.830Z,-1.49
2022-12-18T12:17:22.478Z,-1.57
2022-12-18T12:20:10.026Z,-1.66
2022-12-18T12:23:02.627Z,-1.73
2022-12-18T12:25:50.589Z,-1.78
2022-12-18T12:29:00.105Z,-1.80
2022-12-18T12:31:58.611Z,-1.85
2022-12-18T12:34:47.550Z,-1.90
2022-12-18T12:37:41.056Z,-1.93
2022-12-18T12:40:51.388Z,-1.98
2022-12-18T12:43:40.410Z,-2.00
2022-12-18T12:46:23.996Z,-2.03
2022-12-18T12:49:07.371Z,-2.05
2022-12-18T12:51:49.186Z,-2.07
2022-12-18T12:54:26.950Z,-2.12
2022-12-18T12:57:14.154Z,-2.16
2022-12-18T13:00:07.473Z,-2.19
2022-12-18T13:02:53.492Z,-2.23
2022-12-18T13:05:41.702Z,-2.26
2022-12-18T13:08:33.279Z,-2.30
2022-12-18T13:11:59.795Z,-2.36
2022-12-18T13:14:40.179Z,-2.40
2022-12-18T13:17:34.751Z,-2.42
2022-12-18T13:20:17.801Z,-2.44
2022-12-18T13:22:56.514Z,-2.51
2022-12-18T13:25:39.657Z,-2.62
2022-12-18T13:28:18.879Z,-2.74
2022-12-18T13:31:01.530Z,-2.81
2022-12-18T13:34:24.292Z,-2.86
2022-12-18T13:36:44.818Z,-2.93
2022-12-18T13:39:38.528Z,-3.04
2022-12-18T13:43:06.185Z,-3.15
2022-12-18T13:46:04.043Z,-3.29
2022-12-18T13:48:50.773Z,-3.43
2022-12-18T13:51:29.885Z,-3.55
2022-12-18T13:54:19.878Z,-3.65
2022-12-18T13:56:56.148Z,-3.74
2022-12-18T13:59:39.874Z,-3.83
2022-12-18T14:02:23.720Z,-3.98
2022-12-18T14:05:00.322Z,-4.14
2022-12-18T14:07:41.794Z,-4.26
2022-12-18T14:13:30.144Z,-4.49
2022-12-18T14:16:10.107Z,-4.62
2022-12-18T14:18:56.369Z,-4.75
2022-12-18T14:21:39.780Z,-4.90
2022-12-18T14:24:23.678Z,-5.06
2022-12-18T14:27:23.005Z,-5.29
2022-12-18T14:29:59.344Z,-5.54
2022-12-18T14:32:35.124Z,-5.70
2022-12-18T14:35:21.938Z,-5.85
2022-12-18T14:38:20.516Z,-6.04
2022-12-18T14:41:02.903Z,-6.24
2022-12-18T14:43:43.120Z,-6.40
2022-12-18T14:46:45.337Z,-6.58
2022-12-18T14:49:33.681Z,-6.76
2022-12-18T14:52:31.814Z,-6.90
2022-12-18T14:55:16.155Z,-7.02
2022-12-18T14:57:57.535Z,-7.14
2022-12-18T15:00:34.100Z,-7.24
2022-12-18T15:03:15.466Z,-7.26
2022-12-18T15:05:52.294Z,-7.30
2022-12-18T15:08:41.870Z,-7.50
2022-12-18T15:14:43.389Z,-7.67
2022-12-18T15:17:26.714Z,-7.73
2022-12-18T15:20:15.662Z,-7.80
2022-12-18T15:22:52.535Z,-7.88
2022-12-18T15:25:39.647Z,-7.97
2022-12-18T15:28:27.859Z,-8.04
2022-12-18T15:31:30.833Z,-8.12
2022-12-18T15:34:23.698Z,-8.22
2022-12-18T15:37:00.146Z,-8.35
2022-12-18T15:39:37.205Z,-8.40
2022-12-18T15:42:33.162Z,-8.38
2022-12-18T15:45:14.617Z,-8.31
2022-12-18T15:47:50.794Z,-8.46
2022-12-18T15:50:27.383Z,-8.53
2022-12-18T15:53:05.178Z,-8.57
2022-12-18T15:56:01.375Z,-8.59
2022-12-18T15:58:37.435Z,-8.62
2022-12-18T16:01:15.475Z,-8.67
2022-12-18T16:03:51.894Z,-8.71
2022-12-18T16:06:36.359Z,-8.77
2022-12-18T16:09:26.070Z,-8.85
2022-12-18T16:12:02.491Z,-8.90
2022-12-18T16:14:39.338Z,-8.94
2022-12-18T16:17:18.335Z,-8.97
2022-12-18T16:19:54.707Z,-9.00
2022-12-18T16:22:34.124Z,-8.99
2022-12-18T16:25:18.264Z,-9.00
2022-12-18T16:27:56.790Z,-9.00
2022-12-18T16:30:38.144Z,-9.00
2022-12-18T16:33:15.368Z,-9.00
2022-12-18T16:35:59.387Z,-9.03
2022-12-18T16:38:36.049Z,-9.06
2022-12-18T16:41:36.519Z,-9.09
2022-12-18T16:44:13.707Z,-9.14
2022-12-18T16:46:50.184Z,-9.16
2022-12-18T16:49:26.591Z,-9.18
2022-12-18T16:52:02.916Z,-9.18
2022-12-18T16:54:39.721Z,-9.18
2022-12-18T16:57:20.437Z,-9.17
2022-12-18T17:00:04.361Z,-9.16
2022-12-18T17:02:43.635Z,-9.14
2022-12-18T17:05:20.138Z,-9.12
2022-12-18T17:07:56.709Z,-9.09
2022-12-18T17:10:32.760Z,-9.05
2022-12-18T17:13:08.751Z,-9.04
2022-12-18T17:15:44.757Z,-9.02
2022-12-18T17:18:21.646Z,-9.00
2022-12-18T17:21:02.134Z,-8.97
2022-12-18T17:23:38.751Z,-8.96
2022-12-18T17:26:16.335Z,-8.45
2022-12-18T17:28:52.957Z,-7.96
2022-12-18T17:31:31.845Z,-7.95
2022-12-18T17:34:09.749Z,-8.31
2022-12-18T17:36:46.176Z,-8.67
2022-12-18T17:39:24.773Z,-8.78
2022-12-18T17:42:01.366Z,-7.95
2022-12-18T17:44:37.787Z,-7.51
2022-12-18T17:47:14.229Z,-7.52
2022-12-18T17:49:51.459Z,-7.64
2022-12-18T17:52:28.059Z,-7.69
2022-12-18T17:55:04.379Z,-7.57
2022-12-18T17:57:41.017Z,-7.19
2022-12-18T18:00:20.842Z,-6.84
2022-12-18T18:02:57.090Z,-6.74
2022-12-18T18:05:34.310Z,-6.81
2022-12-18T18:08:11.401Z,-6.89
2022-12-18T18:10:49.245Z,-7.03
2022-12-18T18:13:47.113Z,-6.75
2022-12-18T18:16:23.499Z,-6.91
2022-12-18T18:19:02.164Z,-6.99
2022-12-18T18:21:42.026Z,-7.02
2022-12-18T18:24:23.530Z,-7.20
2022-12-18T18:27:02.644Z,-7.29
2022-12-18T18:29:38.789Z,-7.20
2022-12-18T18:32:14.747Z,-7.10
2022-12-18T18:34:50.628Z,-7.01
2022-12-18T18:37:27.389Z,-6.88
2022-12-18T18:40:03.888Z,-6.49
2022-12-18T18:42:39.924Z,-6.13
2022-12-18T18:45:17.021Z,-5.93
2022-12-18T18:47:53.716Z,-5.91
2022-12-18T18:50:29.843Z,-5.98
2022-12-18T18:53:05.937Z,-6.08
2022-12-18T18:55:42.464Z,-6.04
2022-12-18T18:58:18.827Z,-6.03
2022-12-18T19:01:05.216Z,-5.95
2022-12-18T19:03:43.906Z,-5.87
2022-12-18T19:06:24.515Z,-5.85
2022-12-18T19:09:02.459Z,-5.88
2022-12-18T19:11:56.429Z,-5.96
2022-12-18T19:14:32.437Z,-6.09
2022-12-18T19:17:09.317Z,-6.18
2022-12-18T19:19:46.188Z,-6.22
2022-12-18T19:22:23.069Z,-6.43
2022-12-18T19:24:59.025Z,-6.68
2022-12-18T19:27:36.622Z,-6.91
2022-12-18T19:30:15.781Z,-7.13
2022-12-18T19:32:51.703Z,-7.30
2022-12-18T19:35:30.631Z,-7.45
2022-12-18T19:38:06.918Z,-7.59
2022-12-18T19:40:47.252Z,-7.72
2022-12-18T19:43:23.489Z,-7.84
2022-12-18T19:46:01.832Z,-7.92
2022-12-18T19:48:40.017Z,-8.00
2022-12-18T19:51:20.904Z,-8.06
2022-12-18T19:54:00.515Z,-7.98
2022-12-18T19:56:39.989Z,-7.93
2022-12-18T19:59:16.729Z,-7.62
2022-12-18T20:01:54.525Z,-7.20
2022-12-18T20:04:32.208Z,-6.97
2022-12-18T20:07:09.843Z,-6.91
2022-12-18T20:09:46.137Z,-6.76
2022-12-18T20:12:23.289Z,-6.79
2022-12-18T20:15:00.027Z,-6.91
2022-12-18T20:17:39.295Z,-6.91
2022-12-18T20:20:17.772Z,-6.70
2022-12-18T20:22:54.485Z,-6.53
2022-12-18T20:25:30.438Z,-6.41
2022-12-18T20:28:06.506Z,-6.27
2022-12-18T20:30:43.085Z,-6.15
2022-12-18T20:33:19.381Z,-6.23
2022-12-18T20:35:55.439Z,-6.48
2022-12-18T20:38:32.809Z,-6.71
2022-12-18T20:41:18.871Z,-6.86
2022-12-18T20:43:54.932Z,-6.98
2022-12-18T20:46:33.532Z,-7.08
2022-12-18T20:49:10.119Z,-7.18
2022-12-18T20:51:49.102Z,-7.28
2022-12-18T20:54:29.238Z,-7.37
2022-12-18T20:57:07.416Z,-7.45
2022-12-18T20:59:48.143Z,-7.48
2022-12-18T21:02:25.700Z,-7.58
2022-12-18T21:05:01.928Z,-7.62
2022-12-18T21:07:38.041Z,-7.62
2022-12-18T21:10:15.464Z,-7.64
2022-12-18T21:12:59.995Z,-7.67
2022-12-18T21:15:38.293Z,-7.69
2022-12-18T21:18:14.296Z,-7.70
2022-12-18T21:20:50.662Z,-7.73
2022-12-18T21:23:26.560Z,-7.77
2022-12-18T21:26:22.612Z,-7.79
2022-12-18T21:29:02.925Z,-7.81
2022-12-18T21:31:43.486Z,-7.81
2022-12-18T21:34:25.526Z,-7.80
2022-12-18T21:37:03.924Z,-7.81
2022-12-18T21:39:40.120Z,-7.83
2022-12-18T21:42:34.801Z,-7.84
2022-12-18T21:45:13.236Z,-7.87
2022-12-18T21:47:49.157Z,-7.88
2022-12-18T21:50:25.130Z,-7.91
2022-12-18T21:53:01.285Z,-7.93
2022-12-18T21:55:37.149Z,-7.95
2022-12-18T21:58:13.176Z,-7.99
2022-12-18T22:00:50.620Z,-8.03
2022-12-18T22:03:27.014Z,-8.05
2022-12-18T22:06:09.283Z,-8.05
2022-12-18T22:08:46.155Z,-8.08
2022-12-18T22:11:22.236Z,-8.10
2022-12-18T22:13:59.286Z,-8.11
2022-12-18T22:16:35.287Z,-8.10
2022-12-18T22:19:13.144Z,-8.06
2022-12-18T22:21:52.897Z,-8.00
2022-12-18T22:24:30.424Z,-8.03
2022-12-18T22:27:06.466Z,-8.07
2022-12-18T22:30:00.158Z,-8.09
2022-12-18T22:32:37.580Z,-8.11
2022-12-18T22:35:16.244Z,-8.13
2022-12-18T22:37:52.366Z,-8.14
2022-12-18T22:40:30.073Z,-8.15
2022-12-18T22:43:06.426Z,-8.16
2022-12-18T22:45:42.479Z,-8.19
2022-12-18T22:48:18.563Z,-8.23
2022-12-18T22:50:58.981Z,-8.30
2022-12-18T22:53:35.576Z,-8.36
2022-12-18T22:56:18.669Z,-8.41
2022-12-18T22:58:58.335Z,-8.49
2022-12-18T23:01:36.190Z,-8.57
2022-12-18T23:04:15.236Z,-8.62
2022-12-18T23:06:51.404Z,-8.69
2022-12-18T23:09:27.163Z,-8.76
2022-12-18T23:12:03.671Z,-8.83
2022-12-18T23:14:39.519Z,-8.91
2022-12-18T23:17:15.678Z,-9.00
2022-12-18T23:19:51.763Z,-9.08
2022-12-18T23:22:27.743Z,-9.13
2022-12-18T23:25:03.530Z,-9.16
2022-12-18T23:27:39.588Z,-9.20
2022-12-18T23:30:17.779Z,-9.27
2022-12-18T23:32:53.811Z,-9.34
2022-12-18T23:35:30.632Z,-9.40
2022-12-18T23:38:07.201Z,-9.42
2022-12-18T23:40:43.157Z,-9.44
2022-12-18T23:43:22.036Z,-9.45
2022-12-18T23:45:58.085Z,-9.47
2022-12-18T23:48:33.941Z,-9.48
2022-12-18T23:51:15.097Z,-9.49
2022-12-18T23:53:51.305Z,-9.48
2022-12-18T23:56:28.851Z,-9.49
2022-12-18T23:59:04.857Z,-9.52
